Time;durP1;ratioP1;P1;durP2;ratioP2;P2;SDS_P1;SDS_P2;PMS_P1;PMS_P2;Temp;Humidity;BMP_temperature;BMP_pressure;BME280_temperature;BME280_humidity;BME280_pressure;Samples;Min_cycle;Max_cycle;Signal;HPM_P1;HPM_P2
2021/12/21 00:01:26;;;;;;;34.33;17.33;;;0.50;94.70;;;;;;5039071;28;20032;-79
2021/12/21 00:03:52;;;;;;;35.40;17.27;;;0.50;94.10;;;;;;5038453;28;20025;-78
2021/12/21 00:06:18;;;;;;;38.38;17.48;;;0.50;94.00;;;;;;5038005;28;20029;-80
2021/12/21 00:08:44;;;;;;;39.13;17.83;;;0.60;93.60;;;;;;5037961;28;20283;-79
2021/12/21 00:11:09;;;;;;;37.92;18.13;;;1.30;94.00;;;;;;5037906;28;20190;-79
2021/12/21 00:13:45;;;;;;;35.75;17.80;;;0.60;93.90;;;;;;5038719;28;20029;-78
2021/12/21 00:16:18;;;;;;;35.75;18.05;;;0.60;93.60;;;;;;5038458;28;20414;-80
2021/12/21 00:19:10;;;;;;;40.72;20.35;;;0.60;93.50;;;;;;5037966;28;20067;-78
2021/12/21 00:21:40;;;;;;;41.92;20.35;;;0.60;93.70;;;;;;5038127;28;20075;-79
2021/12/21 00:24:19;;;;;;;40.33;19.55;;;0.60;93.30;;;;;;5038120;28;20021;-79
2021/12/21 00:26:45;;;;;;;40.05;17.77;;;0.50;93.10;;;;;;5038765;28;20025;-78
2021/12/21 00:29:12;;;;;;;40.75;18.52;;;0.60;92.90;;;;;;5038468;28;20404;-80
2021/12/21 00:31:38;;;;;;;32.85;15.52;;;0.50;93.10;;;;;;5037414;28;20537;-79
2021/12/21 00:34:06;;;;;;;32.10;15.98;;;0.60;92.70;;;;;;5039549;28;20033;-79
2021/12/21 00:36:33;;;;;;;36.20;17.02;;;0.60;92.60;;;;;;5048642;28;20420;-79
2021/12/21 00:39:06;;;;;;;35.80;16.50;;;0.60;92.70;;;;;;5049473;28;20033;-79
2021/12/21 00:41:32;;;;;;;36.75;17.60;;;0.50;92.70;;;;;;5050952;28;20671;-78
2021/12/21 00:44:04;;;;;;;35.35;17.33;;;0.60;92.90;;;;;;5048035;28;20033;-79
2021/12/21 00:46:30;;;;;;;35.45;17.05;;;0.50;92.70;;;;;;5043341;28;20718;-78
2021/12/21 00:49:01;;;;;;;37.33;16.92;;;0.40;92.30;;;;;;5042816;28;20301;-80
2021/12/21 00:51:27;;;;;;;35.55;16.02;;;0.30;92.60;;;;;;5042878;28;20320;-78
2021/12/21 00:53:53;;;;;;;32.08;16.20;;;0.30;92.50;;;;;;5042592;28;20056;-79
2021/12/21 00:56:19;;;;;;;33.65;16.02;;;0.30;92.70;;;;;;5041962;28;20233;-78
2021/12/21 00:58:45;;;;;;;37.47;18.02;;;0.30;92.70;;;;;;5042126;28;20086;-79
2021/12/21 01:01:10;;;;;;;152.38;42.45;;;0.30;93.10;;;;;;5042176;28;20017;-79
2021/12/21 01:03:43;;;;;;;54.35;19.50;;;0.20;92.80;;;;;;5041672;28;20499;-79
2021/12/21 01:08:45;;;;;;;33.55;14.30;;;0.30;92.70;;;;;;5041884;28;20120;-78
2021/12/21 01:11:20;;;;;;;30.15;14.05;;;0.30;92.40;;;;;;5041726;28;20017;-79
2021/12/21 01:19:17;;;;;;;30.38;13.25;;;0.40;92.00;;;;;;4979074;28;20306;-78
2021/12/21 01:27:42;;;;;;;29.98;13.23;;;0.90;92.20;;;;;;4939861;29;20144;-79
2021/12/21 01:35:49;;;;;;;31.80;14.32;;;0.50;91.90;;;;;;4863988;29;20056;-79
2021/12/21 01:38:39;;;;;;;29.02;13.60;;;0.50;92.00;;;;;;4864442;29;20201;-78
2021/12/21 01:41:35;;;;;;;27.67;12.75;;;0.50;92.10;;;;;;4863717;29;20036;-79
2021/12/21 01:49:36;;;;;;;26.05;11.68;;;0.40;91.60;;;;;;4863924;29;20198;-79
2021/12/21 01:52:07;;;;;;;23.67;11.40;;;0.40;91.70;;;;;;4864285;29;20056;-79
2021/12/21 01:54:33;;;;;;;29.15;11.30;;;0.40;91.60;;;;;;4848498;29;20051;-78
2021/12/21 01:56:59;;;;;;;25.20;11.82;;;0.40;91.20;;;;;;4894406;29;20059;-78
2021/12/21 01:59:25;;;;;;;26.08;11.93;;;0.30;91.60;;;;;;4901314;29;20032;-78
2021/12/21 02:01:50;;;;;;;25.67;11.45;;;0.30;91.60;;;;;;4934079;28;20529;-78
2021/12/21 02:04:17;;;;;;;31.13;13.63;;;0.30;91.70;;;;;;4958367;28;20210;-78
2021/12/21 02:06:44;;;;;;;28.42;13.60;;;0.30;91.80;;;;;;4958653;28;20554;-78
2021/12/21 02:09:10;;;;;;;29.77;13.93;;;0.30;92.00;;;;;;4986680;28;20040;-78
2021/12/21 02:11:36;;;;;;;26.65;12.07;;;0.40;91.70;;;;;;5039771;28;20229;-77
2021/12/21 02:14:02;;;;;;;31.08;12.82;;;0.40;91.10;;;;;;5040304;28;20032;-78
2021/12/21 02:16:39;;;;;;;30.20;13.40;;;0.40;91.20;;;;;;5040191;28;20029;-78
2021/12/21 02:19:31;;;;;;;31.17;13.35;;;2.30;91.70;;;;;;5040444;28;20028;-78
2021/12/21 02:21:54;;;;;;;23.88;11.90;;;0.40;90.50;;;;;;5039639;28;20503;-78
2021/12/21 02:24:26;;;;;;;29.65;13.43;;;0.40;90.90;;;;;;5039940;28;20024;-78
2021/12/21 02:29:30;;;;;;;23.17;10.65;;;0.30;90.90;;;;;;5041193;28;20301;-78
2021/12/21 02:31:56;;;;;;;21.80;10.07;;;0.40;90.00;;;;;;5041145;28;20210;-77
2021/12/21 02:34:24;;;;;;;24.30;11.25;;;0.30;89.90;;;;;;5040566;28;20024;-77
2021/12/21 02:36:53;;;;;;;22.45;10.73;;;0.30;90.20;;;;;;5039834;28;20321;-78
2021/12/21 02:39:19;;;;;;;28.10;12.75;;;0.30;89.80;;;;;;5039889;28;20064;-79
2021/12/21 02:41:45;;;;;;;28.98;13.50;;;0.40;90.30;;;;;;5039425;28;20126;-78
2021/12/21 02:44:13;;;;;;;28.88;12.73;;;0.30;90.90;;;;;;5039606;28;20313;-78
2021/12/21 02:46:39;;;;;;;25.02;11.40;;;0.30;90.90;;;;;;5039696;28;20051;-78
2021/12/21 02:49:09;;;;;;;26.50;11.77;;;2.00;90.80;;;;;;5038354;28;20595;-79
2021/12/21 02:51:44;;;;;;;27.77;11.75;;;0.30;90.00;;;;;;5039675;28;20495;-78
2021/12/21 02:54:12;;;;;;;33.88;12.38;;;0.40;90.10;;;;;;5039805;28;20072;-78
2021/12/21 02:56:38;;;;;;;24.83;11.20;;;0.40;90.10;;;;;;5039375;28;20317;-79
2021/12/21 02:59:04;;;;;;;23.60;10.82;;;0.40;90.10;;;;;;5039024;28;20104;-78
2021/12/21 03:01:30;;;;;;;25.63;11.20;;;0.40;90.10;;;;;;5039560;28;20411;-78
2021/12/21 03:03:56;;;;;;;23.08;11.13;;;0.40;90.00;;;;;;5039666;28;20024;-77
2021/12/21 03:09:00;;;;;;;17.80;7.78;;;0.40;89.00;;;;;;5039486;28;20025;-78
2021/12/21 03:11:47;;;;;;;15.50;8.43;;;1.50;88.40;;;;;;5038899;28;20617;-79
2021/12/21 03:14:13;;;;;;;22.40;9.00;;;0.40;87.60;;;;;;5039111;28;20021;-78
2021/12/21 03:16:39;;;;;;;19.60;8.55;;;0.40;87.80;;;;;;5039036;28;20040;-78
2021/12/21 03:19:07;;;;;;;14.85;6.68;;;-1.40;87.80;;;;;;5038937;28;20021;-78
2021/12/21 03:21:36;;;;;;;15.18;7.18;;;0.40;87.80;;;;;;5038862;28;20089;-80
2021/12/21 03:24:06;;;;;;;14.32;6.93;;;0.50;88.10;;;;;;5038166;28;20025;-79
2021/12/21 03:26:32;;;;;;;12.70;6.50;;;0.50;86.60;;;;;;5038793;28;20021;-78
2021/12/21 03:28:58;;;;;;;13.27;6.32;;;0.40;86.90;;;;;;5038495;28;20110;-79
2021/12/21 03:31:24;;;;;;;12.88;6.07;;;0.60;85.80;;;;;;5037097;28;20032;-79
2021/12/21 03:33:51;;;;;;;10.13;5.13;;;0.40;87.00;;;;;;5038958;28;20302;-79
2021/12/21 03:36:17;;;;;;;12.40;6.03;;;0.40;85.40;;;;;;5038861;28;20345;-78
2021/12/21 03:38:52;;;;;;;9.68;4.97;;;0.40;85.80;;;;;;5037044;28;20017;-79
2021/12/21 03:41:18;;;;;;;11.98;4.95;;;0.70;86.20;;;;;;5038457;28;20048;-79
2021/12/21 03:43:45;;;;;;;8.23;4.40;;;0.20;86.50;;;;;;5037003;28;20064;-79
2021/12/21 03:46:13;;;;;;;7.97;4.40;;;0.20;86.40;;;;;;5038618;28;20470;-79
2021/12/21 03:48:42;;;;;;;9.85;4.82;;;0.20;86.70;;;;;;5037084;28;20029;-78
2021/12/21 03:51:12;;;;;;;12.25;5.50;;;0.20;86.70;;;;;;5038033;28;20575;-79
2021/12/21 03:53:39;;;;;;;11.00;5.32;;;-0.10;87.00;;;;;;5040363;28;20063;-78
2021/12/21 03:58:33;;;;;;;11.63;5.95;;;0.20;88.00;;;;;;5045017;28;20333;-79
2021/12/21 04:00:59;;;;;;;10.80;5.70;;;0.20;88.60;;;;;;5044968;28;20040;-78
2021/12/21 04:03:25;;;;;;;11.57;5.10;;;0.20;88.30;;;;;;5043761;28;20025;-78
2021/12/21 04:05:52;;;;;;;11.57;5.18;;;0.20;88.30;;;;;;5039654;28;20025;-78
2021/12/21 04:08:17;;;;;;;7.60;4.25;;;0.20;88.30;;;;;;5038860;28;20067;-78
2021/12/21 04:10:43;;;;;;;9.07;3.90;;;0.40;87.50;;;;;;5036665;28;20496;-78
2021/12/21 04:13:10;;;;;;;9.07;4.07;;;0.10;87.80;;;;;;5036883;28;20051;-78
2021/12/21 04:15:44;;;;;;;6.63;3.75;;;0.20;88.20;;;;;;5038185;28;20253;-79
2021/12/21 04:18:13;;;;;;;8.63;4.30;;;0.10;88.30;;;;;;5038109;28;20020;-77
2021/12/21 04:20:42;;;;;;;9.75;4.32;;;0.10;87.70;;;;;;5036183;28;20566;-79
2021/12/21 04:23:08;;;;;;;11.38;4.80;;;0.10;87.50;;;;;;5037955;28;20107;-78
2021/12/21 04:25:36;;;;;;;7.82;4.60;;;0.00;88.10;;;;;;5037714;28;20128;-79
2021/12/21 04:28:05;;;;;;;7.55;3.60;;;0.00;88.40;;;;;;5038267;28;20025;-79
2021/12/21 04:30:31;;;;;;;8.85;4.30;;;0.00;88.00;;;;;;5037976;28;20309;-79
2021/12/21 04:32:56;;;;;;;7.18;3.83;;;0.00;89.00;;;;;;5036874;28;20032;-78
2021/12/21 04:35:22;;;;;;;9.45;3.75;;;0.00;88.10;;;;;;5037576;28;20507;-80
2021/12/21 04:37:56;;;;;;;10.18;4.15;;;0.00;89.10;;;;;;5036209;28;20435;-79
2021/12/21 04:40:26;;;;;;;10.65;4.50;;;0.00;89.30;;;;;;5036567;28;20507;-78
2021/12/21 04:42:52;;;;;;;7.30;3.83;;;-0.10;89.10;;;;;;5038416;28;20336;-78
2021/12/21 04:45:18;;;;;;;7.97;4.00;;;-0.10;89.40;;;;;;5036827;28;20017;-78
2021/12/21 04:47:44;;;;;;;7.55;4.15;;;-0.10;89.90;;;;;;5038161;28;20538;-78
2021/12/21 04:50:11;;;;;;;7.32;3.88;;;-0.10;89.80;;;;;;5036674;28;20078;-78
2021/12/21 04:52:37;;;;;;;9.10;4.32;;;-0.10;89.90;;;;;;5037479;28;20341;-79
2021/12/21 04:55:04;;;;;;;9.88;4.55;;;-0.10;90.20;;;;;;5037668;28;20021;-77
2021/12/21 04:57:30;;;;;;;12.85;5.78;;;-0.10;90.40;;;;;;5038042;28;20025;-79
2021/12/21 04:59:55;;;;;;;18.52;8.07;;;0.00;90.80;;;;;;5036657;28;20144;-79
2021/12/21 05:02:21;;;;;;;17.73;8.48;;;0.00;91.30;;;;;;5037902;28;20044;-79
2021/12/21 05:04:47;;;;;;;20.48;8.70;;;0.00;92.00;;;;;;5037576;28;20350;-79
2021/12/21 05:07:16;;;;;;;19.77;9.23;;;0.00;92.30;;;;;;5037639;28;20484;-79
2021/12/21 05:09:56;;;;;;;20.83;9.70;;;-0.10;92.40;;;;;;5037792;28;20120;-78
2021/12/21 05:12:22;;;;;;;21.65;9.98;;;0.90;92.80;;;;;;5037252;28;20017;-76
2021/12/21 05:14:48;;;;;;;21.90;10.75;;;0.10;92.80;;;;;;5038012;28;20424;-78
2021/12/21 05:17:14;;;;;;;23.70;10.90;;;-0.10;93.00;;;;;;5037752;28;20313;-78
2021/12/21 05:19:40;;;;;;;23.33;10.68;;;-0.10;92.70;;;;;;5037355;28;20674;-79
2021/12/21 05:22:06;;;;;;;29.80;11.10;;;-0.20;92.70;;;;;;5040049;28;20769;-79
2021/12/21 05:24:32;;;;;;;25.25;11.48;;;-0.20;92.80;;;;;;5041397;28;20075;-77
2021/12/21 05:26:58;;;;;;;23.23;11.48;;;-0.50;92.80;;;;;;5041092;28;20025;-78
2021/12/21 05:29:26;;;;;;;25.38;12.20;;;-0.20;93.00;;;;;;5041182;28;20074;-79
2021/12/21 05:31:52;;;;;;;23.60;11.40;;;-0.30;93.10;;;;;;5040902;28;20028;-78
2021/12/21 05:34:23;;;;;;;24.52;11.52;;;-0.40;93.20;;;;;;5041408;28;20020;-79
2021/12/21 05:36:49;;;;;;;20.52;10.00;;;-0.40;93.10;;;;;;5041236;28;20040;-79
2021/12/21 05:39:19;;;;;;;20.38;10.07;;;-0.60;93.30;;;;;;5041073;28;20048;-78
2021/12/21 05:41:50;;;;;;;19.15;10.60;;;-0.60;93.70;;;;;;5041144;28;20043;-78
2021/12/21 05:44:19;;;;;;;22.52;11.02;;;-0.60;93.80;;;;;;5041818;28;20115;-79
2021/12/21 05:46:46;;;;;;;22.85;11.23;;;0.00;94.00;;;;;;5041759;28;20363;-79
2021/12/21 05:49:12;;;;;;;24.90;11.63;;;-0.60;93.90;;;;;;5042022;28;20147;-79
2021/12/21 05:51:37;;;;;;;21.95;11.68;;;-0.70;93.80;;;;;;5041507;28;20017;-79
2021/12/21 05:54:03;;;;;;;29.00;12.32;;;-0.70;93.80;;;;;;5040965;28;20045;-79
2021/12/21 05:56:29;;;;;;;24.75;11.65;;;-0.80;93.80;;;;;;5039237;28;20554;-79
2021/12/21 05:58:58;;;;;;;26.65;12.77;;;-0.80;93.80;;;;;;5039538;28;20121;-79
2021/12/21 06:01:26;;;;;;;31.70;14.82;;;-1.00;94.30;;;;;;5039322;28;20135;-78
2021/12/21 06:03:52;;;;;;;43.05;20.98;;;-1.00;94.50;;;;;;5040086;28;20321;-80
2021/12/21 06:06:18;;;;;;;35.63;18.67;;;-1.10;94.50;;;;;;5040950;28;20100;-79
2021/12/21 06:08:46;;;;;;;36.00;17.75;;;-1.10;94.70;;;;;;5041428;28;20130;-79
2021/12/21 06:11:13;;;;;;;28.80;14.90;;;-1.10;94.80;;;;;;5040900;28;20056;-78
2021/12/21 06:22:45;;;;;;;37.65;16.15;;;-1.50;95.00;;;;;;5042054;28;20060;-79
2021/12/21 06:26:49;;;;;;;65.05;22.95;;;-1.60;95.40;;;;;;5041706;28;20033;-80
2021/12/21 06:29:15;;;;;;;57.92;21.00;;;-1.60;95.60;;;;;;5042132;28;20103;-78
2021/12/21 06:31:41;;;;;;;59.92;23.42;;;-1.60;95.40;;;;;;5040971;28;20059;-77
2021/12/21 06:34:08;;;;;;;44.47;18.30;;;-3.60;94.90;;;;;;5040462;28;20032;-80
2021/12/21 06:36:34;;;;;;;41.95;18.88;;;-1.80;95.40;;;;;;5039472;28;20510;-77
2021/12/21 06:39:00;;;;;;;25.17;12.70;;;-1.80;95.40;;;;;;5041088;28;20269;-79
2021/12/21 06:41:26;;;;;;;24.73;11.60;;;-1.80;95.40;;;;;;5041423;28;20034;-78
2021/12/21 06:43:52;;;;;;;23.60;11.75;;;-1.80;95.60;;;;;;5041811;28;20025;-78
2021/12/21 06:46:42;;;;;;;24.17;12.20;;;-1.80;95.50;;;;;;5041273;28;20108;-80
2021/12/21 06:52:12;;;;;;;45.65;21.02;;;-1.80;95.50;;;;;;4979772;28;20035;-78
2021/12/21 06:54:37;;;;;;;70.60;29.10;;;-1.70;95.40;;;;;;4979950;28;20034;-79
2021/12/21 06:57:04;;;;;;;99.70;36.28;;;-1.60;95.40;;;;;;4980409;28;20391;-79
2021/12/21 06:59:30;;;;;;;123.30;45.70;;;-1.60;95.10;;;;;;4979567;28;20778;-78
2021/12/21 07:01:56;;;;;;;116.30;43.58;;;-1.60;95.50;;;;;;4978717;28;20065;-78
2021/12/21 07:04:24;;;;;;;75.82;29.45;;;-1.60;95.10;;;;;;4978763;28;20332;-79
2021/12/21 07:06:53;;;;;;;44.45;21.27;;;-1.60;95.10;;;;;;4979870;28;20124;-80
2021/12/21 07:09:29;;;;;;;31.27;13.65;;;-1.00;95.10;;;;;;4979355;28;20031;-79
2021/12/21 07:12:15;;;;;;;19.77;9.43;;;-1.70;94.90;;;;;;4978784;28;20050;-79
2021/12/21 07:20:00;;;;;;;15.13;7.47;;;-1.80;94.90;;;;;;4991310;28;20058;-78
2021/12/21 07:22:25;;;;;;;18.13;8.40;;;-1.80;95.10;;;;;;5009302;28;20041;-78
2021/12/21 07:24:52;;;;;;;14.60;8.30;;;-1.70;95.30;;;;;;5044814;28;20048;-79
2021/12/21 07:27:18;;;;;;;18.60;8.27;;;-1.60;95.20;;;;;;5043110;28;20025;-79
2021/12/21 07:29:45;;;;;;;17.15;8.35;;;-1.70;95.10;;;;;;5042646;28;20025;-79
2021/12/21 07:32:11;;;;;;;23.90;10.00;;;-1.60;94.90;;;;;;5042219;28;20108;-79
2021/12/21 07:34:38;;;;;;;22.58;10.15;;;-2.70;94.60;;;;;;5040624;28;20438;-80
2021/12/21 07:37:06;;;;;;;29.98;13.55;;;-0.70;95.10;;;;;;5039812;28;20044;-79
2021/12/21 07:39:32;;;;;;;33.25;16.25;;;-1.50;95.00;;;;;;5041286;28;20109;-80
2021/12/21 07:41:57;;;;;;;29.88;14.60;;;-0.80;94.90;;;;;;5040518;28;20115;-78
2021/12/21 07:44:23;;;;;;;30.40;14.32;;;-1.30;94.40;;;;;;5038874;28;20511;-78
2021/12/21 07:46:49;;;;;;;28.25;13.70;;;-1.10;94.20;;;;;;5041211;28;20025;-78
2021/12/21 07:49:15;;;;;;;27.40;13.43;;;-1.00;93.80;;;;;;5041878;28;20061;-77
2021/12/21 07:51:43;;;;;;;25.42;11.63;;;-0.80;93.40;;;;;;5039715;28;20104;-79
2021/12/21 07:54:09;;;;;;;27.02;12.35;;;-0.80;93.30;;;;;;5039378;28;20095;-78
2021/12/21 07:56:37;;;;;;;27.20;12.30;;;-0.70;93.00;;;;;;5039570;28;20056;-77
2021/12/21 07:59:06;;;;;;;26.13;12.02;;;-0.70;92.80;;;;;;5038839;28;20507;-80
2021/12/21 08:01:34;;;;;;;25.60;11.60;;;-0.80;92.90;;;;;;5039596;28;20025;-78
2021/12/21 08:04:00;;;;;;;26.75;12.60;;;-0.50;92.80;;;;;;5038962;28;20026;-80
2021/12/21 08:06:30;;;;;;;27.25;12.50;;;-0.30;92.70;;;;;;5038617;28;20025;-79
2021/12/21 08:08:56;;;;;;;24.92;12.05;;;-0.20;92.00;;;;;;5038597;28;20095;-79
2021/12/21 08:12:10;;;;;;;27.98;12.63;;;0.10;91.40;;;;;;5038281;28;20032;-78
2021/12/21 08:14:13;;;;;;;27.20;12.05;;;0.30;91.10;;;;;;5039306;28;20706;-78
2021/12/21 08:16:39;;;;;;;24.92;12.45;;;-1.80;90.40;;;;;;5039069;28;20065;-79
2021/12/21 08:19:07;;;;;;;24.45;12.07;;;0.50;90.60;;;;;;5038161;28;20202;-78
2021/12/21 08:21:33;;;;;;;44.25;21.45;;;0.60;90.30;;;;;;5039217;28;20078;-80
2021/12/21 08:24:00;;;;;;;23.23;11.07;;;0.70;89.20;;;;;;5038561;28;20025;-78
2021/12/21 08:26:26;;;;;;;24.83;11.82;;;0.70;87.40;;;;;;5039035;28;20024;-78
2021/12/21 08:28:51;;;;;;;26.05;11.43;;;0.70;86.20;;;;;;5038148;28;20029;-78
2021/12/21 08:31:20;;;;;;;24.00;11.70;;;0.60;86.90;;;;;;5040329;28;20021;-78
2021/12/21 08:33:45;;;;;;;26.92;13.13;;;0.60;86.50;;;;;;5039991;28;20723;-80
2021/12/21 08:36:11;;;;;;;24.63;12.88;;;0.70;85.80;;;;;;5039921;28;20109;-78
2021/12/21 08:38:40;;;;;;;18.75;9.32;;;0.70;84.50;;;;;;5038172;28;20021;-79
2021/12/21 08:41:06;;;;;;;17.02;7.03;;;0.70;81.90;;;;;;5038028;28;20588;-80
2021/12/21 08:43:33;;;;;;;14.82;6.57;;;-0.90;78.30;;;;;;5037945;28;20025;-79
2021/12/21 08:45:59;;;;;;;13.98;6.32;;;0.80;79.30;;;;;;5038043;28;20686;-78
2021/12/21 08:48:26;;;;;;;12.02;5.55;;;1.00;75.70;;;;;;5037854;28;20031;-78
2021/12/21 08:50:54;;;;;;;6.15;2.83;;;1.20;74.70;;;;;;5037670;28;20017;-78
2021/12/21 08:53:22;;;;;;;2.45;1.42;;;1.40;71.30;;;;;;5037764;28;20122;-78
2021/12/21 08:55:51;;;;;;;4.05;2.38;;;1.50;68.20;;;;;;5038875;28;20108;-79
2021/12/21 08:58:18;;;;;;;8.15;3.25;;;1.50;67.90;;;;;;5042511;28;20009;-78
2021/12/21 09:00:44;;;;;;;7.22;4.13;;;1.60;67.90;;;;;;5042908;28;20578;-80
2021/12/21 09:03:11;;;;;;;10.52;4.55;;;1.00;67.30;;;;;;5043382;28;20051;-78
2021/12/21 09:05:37;;;;;;;7.95;4.45;;;1.80;67.70;;;;;;5043394;28;20257;-79
2021/12/21 09:08:04;;;;;;;29.75;11.55;;;1.80;65.00;;;;;;5044976;28;20025;-79
2021/12/21 09:10:31;;;;;;;94.53;32.22;;;2.00;66.60;;;;;;5043724;28;20025;-78
2021/12/21 09:12:57;;;;;;;64.55;21.60;;;2.20;67.40;;;;;;5042157;28;20014;-79
2021/12/21 09:15:25;;;;;;;69.78;31.65;;;2.40;65.60;;;;;;5042451;28;20614;-79
2021/12/21 09:17:51;;;;;;;26.10;12.00;;;2.50;64.50;;;;;;5041800;28;20033;-79
2021/12/21 09:20:20;;;;;;;11.90;6.07;;;2.40;61.60;;;;;;5043914;28;20442;-79
2021/12/21 09:22:46;;;;;;;11.10;4.70;;;2.40;61.70;;;;;;5043611;28;20028;-78
2021/12/21 09:25:12;;;;;;;6.20;3.42;;;2.50;61.70;;;;;;5041763;28;20013;-79
2021/12/21 09:27:39;;;;;;;4.72;3.10;;;2.50;61.00;;;;;;5041746;28;20021;-78
2021/12/21 09:30:07;;;;;;;20.38;9.65;;;2.50;58.30;;;;;;5042519;28;20632;-80
2021/12/21 09:32:33;;;;;;;11.93;6.45;;;2.70;59.50;;;;;;5041321;28;20481;-79
2021/12/21 09:34:59;;;;;;;6.75;3.65;;;2.80;58.40;;;;;;5042685;28;20105;-79
2021/12/21 09:37:25;;;;;;;6.38;3.35;;;2.90;58.90;;;;;;5054202;28;20048;-80
2021/12/21 09:39:53;;;;;;;53.70;21.95;;;3.10;58.10;;;;;;5041201;28;20108;-79
2021/12/21 09:42:28;;;;;;;11.20;4.78;;;3.00;56.30;;;;;;5041470;28;20021;-79
2021/12/21 09:44:55;;;;;;;5.38;2.65;;;3.00;56.90;;;;;;5045355;28;20045;-80
2021/12/21 09:47:21;;;;;;;5.00;2.10;;;2.90;57.40;;;;;;5046213;28;20013;-80
2021/12/21 09:49:48;;;;;;;5.57;1.98;;;2.80;56.80;;;;;;5042508;28;20033;-80
2021/12/21 09:52:20;;;;;;;4.75;2.20;;;2.90;57.00;;;;;;5042840;28;20063;-80
2021/12/21 09:54:47;;;;;;;6.03;2.20;;;2.90;56.40;;;;;;5042270;28;20131;-79
2021/12/21 09:57:16;;;;;;;4.30;2.05;;;2.90;55.90;;;;;;5042998;28;20060;-80
2021/12/21 09:59:47;;;;;;;3.25;1.88;;;3.00;55.60;;;;;;5040799;28;20348;-78
2021/12/21 10:02:15;;;;;;;4.22;2.00;;;3.00;55.50;;;;;;5042028;28;20590;-79
2021/12/21 10:04:53;;;;;;;11.45;6.35;;;3.20;55.80;;;;;;5042281;28;20098;-80
2021/12/21 10:07:22;;;;;;;10.10;5.43;;;3.30;55.50;;;;;;5040837;28;20339;-80
2021/12/21 10:09:48;;;;;;;4.80;2.83;;;3.40;54.60;;;;;;5040719;28;20033;-80
2021/12/21 10:12:34;;;;;;;3.25;2.00;;;3.10;53.50;;;;;;5042542;28;20021;-80
2021/12/21 10:15:20;;;;;;;3.65;2.13;;;3.20;54.70;;;;;;5042591;28;20044;-79
2021/12/21 10:18:01;;;;;;;4.33;2.30;;;3.40;53.50;;;;;;5043310;28;20146;-78
2021/12/21 10:20:36;;;;;;;2.08;1.23;;;3.40;54.30;;;;;;5042655;28;20359;-78
2021/12/21 10:23:30;;;;;;;2.93;1.60;;;4.50;53.10;;;;;;5042758;28;20096;-78
2021/12/21 10:26:07;;;;;;;3.85;1.98;;;3.50;53.20;;;;;;4999732;28;20033;-79
2021/12/21 10:28:40;;;;;;;8.93;4.70;;;3.60;53.20;;;;;;5000608;28;20037;-80
2021/12/21 10:31:11;;;;;;;13.50;6.20;;;3.80;54.80;;;;;;5001805;28;20335;-79
2021/12/21 10:33:42;;;;;;;14.20;6.93;;;4.00;53.00;;;;;;5000889;28;20014;-78
2021/12/21 10:36:09;;;;;;;10.95;5.75;;;4.20;55.20;;;;;;5016809;28;20048;-80
2021/12/21 10:38:43;;;;;;;12.85;5.00;;;4.40;52.20;;;;;;4994539;28;20094;-78
2021/12/21 10:41:32;;;;;;;11.10;5.35;;;4.50;51.90;;;;;;4991759;28;20037;-80
2021/12/21 10:44:01;;;;;;;11.88;5.47;;;4.60;54.00;;;;;;5008373;28;20062;-80
2021/12/21 10:46:32;;;;;;;22.02;9.93;;;4.70;52.40;;;;;;4999494;28;20417;-79
2021/12/21 10:49:25;;;;;;;12.52;6.72;;;4.70;51.10;;;;;;5000005;28;20025;-79
2021/12/21 10:52:05;;;;;;;9.18;5.05;;;4.70;52.90;;;;;;4996193;28;20026;-78
2021/12/21 10:54:30;;;;;;;13.20;6.05;;;4.80;51.60;;;;;;4999180;28;20037;-79
2021/12/21 10:56:58;;;;;;;24.38;8.10;;;4.90;52.40;;;;;;4998639;28;20042;-80
2021/12/21 10:59:40;;;;;;;13.52;7.07;;;5.00;55.60;;;;;;4999603;28;20099;-79
2021/12/21 11:02:13;;;;;;;81.25;43.15;;;5.10;52.10;;;;;;5008771;28;20535;-79
2021/12/21 11:04:51;;;;;;;18.85;10.32;;;5.10;51.90;;;;;;5041994;28;20028;-78
2021/12/21 11:07:37;;;;;;;10.20;5.20;;;5.20;51.30;;;;;;5041953;28;20028;-78
2021/12/21 11:10:12;;;;;;;9.93;5.38;;;5.20;50.90;;;;;;5039140;28;20342;-78
2021/12/21 11:12:53;;;;;;;21.58;8.50;;;5.20;49.10;;;;;;5041591;28;20020;-79
2021/12/21 11:15:22;;;;;;;17.63;7.60;;;5.30;49.80;;;;;;5042084;28;20279;-80
2021/12/21 11:17:48;;;;;;;18.33;9.23;;;5.50;49.60;;;;;;5041120;28;20267;-79
2021/12/21 11:20:16;;;;;;;16.65;8.40;;;5.40;50.20;;;;;;5039180;28;20022;-79
2021/12/21 11:22:44;;;;;;;11.60;5.82;;;5.30;49.30;;;;;;5040973;28;20526;-78
2021/12/21 11:25:12;;;;;;;10.88;6.07;;;5.10;49.30;;;;;;5041630;28;20021;-78
2021/12/21 11:27:42;;;;;;;17.50;8.80;;;4.70;48.70;;;;;;5041134;28;20028;-79
2021/12/21 11:30:16;;;;;;;21.23;8.05;;;4.40;50.70;;;;;;5039099;28;20131;-79
2021/12/21 11:32:47;;;;;;;12.55;6.45;;;4.20;50.50;;;;;;5040504;28;20043;-79
2021/12/21 11:37:51;;;;;;;16.38;8.02;;;5.10;52.90;;;;;;5039798;28;20202;-79
2021/12/21 11:40:39;;;;;;;15.25;6.13;;;4.00;52.30;;;;;;5038834;28;20392;-79
2021/12/21 11:43:22;;;;;;;5.40;3.13;;;4.20;51.30;;;;;;5040020;28;20380;-79
2021/12/21 11:45:56;;;;;;;6.72;3.25;;;4.40;50.50;;;;;;5040092;28;20024;-78
2021/12/21 11:48:31;;;;;;;9.48;4.10;;;4.00;49.40;;;;;;5041847;28;20021;-79
2021/12/21 11:51:09;;;;;;;9.85;4.05;;;4.40;50.20;;;;;;5041354;28;20559;-79
2021/12/21 11:53:36;;;;;;;7.57;3.75;;;4.30;50.50;;;;;;5040583;28;20169;-78
2021/12/21 11:56:02;;;;;;;7.40;3.97;;;4.30;49.80;;;;;;5039436;28;20535;-79
2021/12/21 11:58:39;;;;;;;8.98;3.72;;;4.30;50.60;;;;;;5041713;28;20136;-79
2021/12/21 12:01:12;;;;;;;7.38;3.78;;;3.40;49.80;;;;;;5040774;28;20021;-79
2021/12/21 12:03:44;;;;;;;7.53;3.78;;;6.20;51.70;;;;;;5039500;28;20025;-79
2021/12/21 12:06:15;;;;;;;12.00;5.15;;;4.30;50.90;;;;;;5039555;28;20177;-78
2021/12/21 12:08:52;;;;;;;7.05;3.78;;;4.20;51.20;;;;;;5040480;28;20116;-80
2021/12/21 12:11:24;;;;;;;7.97;3.80;;;4.10;50.90;;;;;;5040040;28;20028;-79
2021/12/21 12:14:01;;;;;;;6.95;3.90;;;3.90;51.00;;;;;;5039890;28;20025;-79
2021/12/21 12:16:27;;;;;;;13.80;6.15;;;4.90;51.90;;;;;;5039861;28;20025;-78
2021/12/21 12:18:53;;;;;;;16.33;7.82;;;4.10;51.70;;;;;;5038531;28;20021;-78
2021/12/21 12:21:26;;;;;;;17.83;8.60;;;4.30;51.90;;;;;;5039327;28;20032;-80
2021/12/21 12:23:57;;;;;;;8.50;4.40;;;4.30;51.90;;;;;;5038944;28;20037;-78
2021/12/21 12:26:30;;;;;;;9.63;4.40;;;4.10;51.60;;;;;;5039299;28;20503;-78
2021/12/21 12:29:11;;;;;;;15.82;5.80;;;4.00;51.60;;;;;;5038735;28;20021;-78
2021/12/21 12:31:40;;;;;;;19.67;5.93;;;4.10;51.70;;;;;;5022680;28;20090;-79
2021/12/21 12:34:07;;;;;;;9.32;4.75;;;4.40;51.90;;;;;;5038011;28;20055;-78
2021/12/21 12:36:51;;;;;;;12.10;5.25;;;4.70;50.50;;;;;;5038641;28;20443;-78
2021/12/21 12:39:40;;;;;;;9.07;5.30;;;4.90;49.90;;;;;;5038061;28;20021;-79
2021/12/21 12:42:13;;;;;;;12.48;6.75;;;4.80;49.50;;;;;;5038882;28;20024;-79
2021/12/21 12:44:42;;;;;;;8.68;5.30;;;4.80;50.10;;;;;;5037970;28;20025;-78
2021/12/21 12:47:11;;;;;;;10.60;4.35;;;5.10;50.10;;;;;;5038481;28;20093;-79
2021/12/21 12:49:47;;;;;;;10.40;4.70;;;5.20;49.20;;;;;;5038152;28;20036;-78
2021/12/21 12:52:19;;;;;;;11.73;4.57;;;5.30;48.30;;;;;;5038948;28;20086;-80
2021/12/21 12:54:54;;;;;;;9.43;4.82;;;5.00;48.60;;;;;;5039498;28;20037;-78
2021/12/21 12:57:25;;;;;;;8.63;3.70;;;4.90;48.50;;;;;;5039682;28;20040;-79
2021/12/21 13:00:16;;;;;;;12.82;6.40;;;4.80;48.00;;;;;;5039128;28;20024;-79
2021/12/21 13:02:57;;;;;;;13.27;7.28;;;5.00;48.40;;;;;;5038614;28;20084;-79
2021/12/21 13:05:32;;;;;;;16.02;6.25;;;4.90;48.40;;;;;;5040419;28;20025;-80
2021/12/21 13:08:10;;;;;;;10.48;5.85;;;4.90;48.60;;;;;;5040327;28;20045;-79
2021/12/21 13:10:42;;;;;;;8.68;4.40;;;4.80;48.40;;;;;;5041263;28;20025;-79
2021/12/21 13:13:08;;;;;;;10.07;5.10;;;4.60;49.20;;;;;;5039927;28;20086;-79
2021/12/21 13:15:36;;;;;;;10.57;5.00;;;4.30;49.20;;;;;;5038618;28;20075;-78
2021/12/21 13:18:05;;;;;;;10.65;4.47;;;4.20;50.40;;;;;;5039212;28;20530;-79
2021/12/21 13:20:33;;;;;;;5.82;4.47;;;4.40;50.80;;;;;;5037586;28;20538;-78
2021/12/21 13:23:15;;;;;;;13.43;5.68;;;4.40;50.60;;;;;;5038212;28;20055;-78
2021/12/21 13:25:56;;;;;;;9.05;5.07;;;4.20;50.30;;;;;;5037104;28;20037;-78
2021/12/21 13:28:22;;;;;;;9.38;5.03;;;4.10;50.40;;;;;;5038449;28;20017;-79
2021/12/21 13:30:50;;;;;;;11.38;5.55;;;4.00;51.20;;;;;;5038729;28;20610;-80
2021/12/21 13:33:23;;;;;;;10.15;5.20;;;3.80;51.90;;;;;;5038778;28;20017;-80
2021/12/21 13:35:54;;;;;;;9.20;4.75;;;4.40;52.20;;;;;;5038559;28;20037;-79
2021/12/21 13:38:23;;;;;;;12.05;5.90;;;3.60;52.20;;;;;;5038906;28;20060;-80
2021/12/21 13:41:44;;;;;;;9.98;5.38;;;3.50;52.80;;;;;;5039390;28;20028;-79
2021/12/21 13:44:09;;;;;;;11.77;5.50;;;2.90;53.80;;;;;;4999179;28;20034;-78
2021/12/21 13:46:35;;;;;;;12.05;6.00;;;3.90;51.00;;;;;;4982957;28;20026;-79
2021/12/21 13:49:01;;;;;;;12.85;6.38;;;3.80;51.20;;;;;;4998922;28;20030;-79
2021/12/21 13:51:27;;;;;;;13.60;5.95;;;4.00;51.10;;;;;;4999054;28;20800;-79